sensor_id;sensor_type;location;lat;lon;timestamp;P1;durP1;ratioP1;P2;durP2;ratioP2
17079;SDS011;8655;57.106;-2.088;2023-11-18T00:01:19;1.37;;;0.87;;
17079;SDS011;8655;57.106;-2.088;2023-11-18T00:03:45;0.87;;;0.80;;
17079;SDS011;8655;57.106;-2.088;2023-11-18T00:06:11;0.80;;;0.80;;
17079;SDS011;8655;57.106;-2.088;2023-11-18T00:08:37;1.10;;;1.00;;
17079;SDS011;8655;57.106;-2.088;2023-11-18T00:11:03;1.20;;;0.70;;
17079;SDS011;8655;57.106;-2.088;2023-11-18T00:13:29;1.17;;;0.87;;
17079;SDS011;8655;57.106;-2.088;2023-11-18T00:15:55;1.90;;;1.00;;
17079;SDS011;8655;57.106;-2.088;2023-11-18T00:18:20;1.10;;;1.00;;
17079;SDS011;8655;57.106;-2.088;2023-11-18T00:20:46;1.20;;;0.70;;
17079;SDS011;8655;57.106;-2.088;2023-11-18T00:23:12;0.80;;;0.80;;
17079;SDS011;8655;57.106;-2.088;2023-11-18T00:25:37;1.40;;;0.90;;
17079;SDS011;8655;57.106;-2.088;2023-11-18T00:28:05;0.93;;;0.80;;
17079;SDS011;8655;57.106;-2.088;2023-11-18T00:30:32;1.33;;;0.70;;
17079;SDS011;8655;57.106;-2.088;2023-11-18T00:32:59;0.67;;;0.60;;
17079;SDS011;8655;57.106;-2.088;2023-11-18T00:35:24;1.27;;;0.60;;
17079;SDS011;8655;57.106;-2.088;2023-11-18T00:37:50;1.33;;;0.90;;
17079;SDS011;8655;57.106;-2.088;2023-11-18T00:40:16;0.90;;;0.70;;
17079;SDS011;8655;57.106;-2.088;2023-11-18T00:42:44;0.77;;;0.57;;
17079;SDS011;8655;57.106;-2.088;2023-11-18T00:45:11;1.23;;;0.80;;
17079;SDS011;8655;57.106;-2.088;2023-11-18T00:47:40;1.07;;;0.73;;
17079;SDS011;8655;57.106;-2.088;2023-11-18T00:50:06;0.83;;;0.60;;
17079;SDS011;8655;57.106;-2.088;2023-11-18T00:52:33;0.40;;;0.40;;
17079;SDS011;8655;57.106;-2.088;2023-11-18T00:54:59;1.10;;;0.90;;
17079;SDS011;8655;57.106;-2.088;2023-11-18T00:57:25;0.70;;;0.70;;
17079;SDS011;8655;57.106;-2.088;2023-11-18T00:59:51;0.93;;;0.87;;
17079;SDS011;8655;57.106;-2.088;2023-11-18T01:02:17;1.33;;;0.67;;
17079;SDS011;8655;57.106;-2.088;2023-11-18T01:04:43;0.80;;;0.70;;
17079;SDS011;8655;57.106;-2.088;2023-11-18T01:07:11;1.23;;;0.80;;
17079;SDS011;8655;57.106;-2.088;2023-11-18T01:09:37;3.07;;;1.00;;
17079;SDS011;8655;57.106;-2.088;2023-11-18T01:12:04;1.83;;;0.80;;
17079;SDS011;8655;57.106;-2.088;2023-11-18T01:14:31;1.93;;;0.93;;
17079;SDS011;8655;57.106;-2.088;2023-11-18T01:16:56;2.17;;;0.90;;
17079;SDS011;8655;57.106;-2.088;2023-11-18T01:19:22;1.80;;;1.00;;
17079;SDS011;8655;57.106;-2.088;2023-11-18T01:21:48;1.20;;;0.80;;
17079;SDS011;8655;57.106;-2.088;2023-11-18T01:24:14;1.20;;;0.90;;
17079;SDS011;8655;57.106;-2.088;2023-11-18T01:26:41;1.27;;;0.70;;
17079;SDS011;8655;57.106;-2.088;2023-11-18T01:29:07;1.93;;;1.00;;
17079;SDS011;8655;57.106;-2.088;2023-11-18T01:31:32;0.93;;;0.80;;
17079;SDS011;8655;57.106;-2.088;2023-11-18T01:33:58;1.73;;;0.80;;
17079;SDS011;8655;57.106;-2.088;2023-11-18T01:36:24;1.03;;;0.57;;
17079;SDS011;8655;57.106;-2.088;2023-11-18T01:38:50;1.50;;;0.73;;
17079;SDS011;8655;57.106;-2.088;2023-11-18T01:41:16;2.67;;;1.00;;
17079;SDS011;8655;57.106;-2.088;2023-11-18T01:43:45;1.87;;;0.97;;
17079;SDS011;8655;57.106;-2.088;2023-11-18T01:46:11;1.33;;;0.90;;
17079;SDS011;8655;57.106;-2.088;2023-11-18T01:48:38;1.00;;;0.70;;
17079;SDS011;8655;57.106;-2.088;2023-11-18T01:51:07;1.40;;;0.80;;
17079;SDS011;8655;57.106;-2.088;2023-11-18T01:53:36;2.07;;;0.93;;
17079;SDS011;8655;57.106;-2.088;2023-11-18T01:56:04;1.80;;;0.90;;
17079;SDS011;8655;57.106;-2.088;2023-11-18T01:58:32;1.60;;;0.97;;
17079;SDS011;8655;57.106;-2.088;2023-11-18T02:01:00;1.20;;;0.80;;
17079;SDS011;8655;57.106;-2.088;2023-11-18T02:03:27;1.37;;;1.00;;
17079;SDS011;8655;57.106;-2.088;2023-11-18T02:05:53;1.13;;;0.97;;
17079;SDS011;8655;57.106;-2.088;2023-11-18T02:08:19;1.33;;;1.00;;
17079;SDS011;8655;57.106;-2.088;2023-11-18T02:10:49;1.60;;;0.90;;
17079;SDS011;8655;57.106;-2.088;2023-11-18T02:13:23;2.47;;;1.10;;
17079;SDS011;8655;57.106;-2.088;2023-11-18T02:15:54;1.97;;;0.90;;
17079;SDS011;8655;57.106;-2.088;2023-11-18T02:18:24;1.20;;;0.90;;
17079;SDS011;8655;57.106;-2.088;2023-11-18T02:20:52;2.10;;;1.20;;
17079;SDS011;8655;57.106;-2.088;2023-11-18T02:23:20;1.87;;;1.17;;
17079;SDS011;8655;57.106;-2.088;2023-11-18T02:25:47;1.57;;;0.87;;
17079;SDS011;8655;57.106;-2.088;2023-11-18T02:28:14;2.07;;;0.97;;
17079;SDS011;8655;57.106;-2.088;2023-11-18T02:30:43;1.07;;;0.97;;
17079;SDS011;8655;57.106;-2.088;2023-11-18T02:33:12;3.17;;;1.10;;
17079;SDS011;8655;57.106;-2.088;2023-11-18T02:35:46;1.90;;;1.20;;
17079;SDS011;8655;57.106;-2.088;2023-11-18T02:38:19;2.53;;;1.13;;
17079;SDS011;8655;57.106;-2.088;2023-11-18T02:40:48;3.37;;;1.20;;
17079;SDS011;8655;57.106;-2.088;2023-11-18T02:43:18;3.40;;;1.20;;
17079;SDS011;8655;57.106;-2.088;2023-11-18T02:45:44;1.70;;;1.00;;
17079;SDS011;8655;57.106;-2.088;2023-11-18T02:48:11;4.07;;;1.20;;
17079;SDS011;8655;57.106;-2.088;2023-11-18T02:50:39;3.10;;;1.10;;
17079;SDS011;8655;57.106;-2.088;2023-11-18T02:53:06;2.63;;;1.13;;
17079;SDS011;8655;57.106;-2.088;2023-11-18T02:55:34;3.43;;;1.20;;
17079;SDS011;8655;57.106;-2.088;2023-11-18T02:58:00;1.70;;;1.03;;
17079;SDS011;8655;57.106;-2.088;2023-11-18T03:00:27;1.97;;;1.00;;
17079;SDS011;8655;57.106;-2.088;2023-11-18T03:02:53;3.53;;;1.30;;
17079;SDS011;8655;57.106;-2.088;2023-11-18T03:05:19;1.73;;;1.03;;
17079;SDS011;8655;57.106;-2.088;2023-11-18T03:07:48;2.27;;;1.20;;
17079;SDS011;8655;57.106;-2.088;2023-11-18T03:10:20;2.80;;;1.00;;
17079;SDS011;8655;57.106;-2.088;2023-11-18T03:12:55;2.17;;;1.17;;
17079;SDS011;8655;57.106;-2.088;2023-11-18T03:15:22;4.50;;;1.73;;
17079;SDS011;8655;57.106;-2.088;2023-11-18T03:17:50;2.47;;;1.10;;
17079;SDS011;8655;57.106;-2.088;2023-11-18T03:20:17;5.73;;;1.60;;
17079;SDS011;8655;57.106;-2.088;2023-11-18T03:22:44;4.33;;;1.30;;
17079;SDS011;8655;57.106;-2.088;2023-11-18T03:25:10;3.70;;;1.73;;
17079;SDS011;8655;57.106;-2.088;2023-11-18T03:27:36;3.90;;;1.40;;
17079;SDS011;8655;57.106;-2.088;2023-11-18T03:30:02;5.13;;;1.67;;
17079;SDS011;8655;57.106;-2.088;2023-11-18T03:32:28;1.87;;;1.30;;
17079;SDS011;8655;57.106;-2.088;2023-11-18T03:34:53;2.67;;;1.40;;
17079;SDS011;8655;57.106;-2.088;2023-11-18T03:37:19;3.43;;;1.40;;
17079;SDS011;8655;57.106;-2.088;2023-11-18T03:39:48;3.10;;;1.40;;
17079;SDS011;8655;57.106;-2.088;2023-11-18T03:42:14;2.03;;;1.20;;
17079;SDS011;8655;57.106;-2.088;2023-11-18T03:44:40;2.87;;;1.30;;
17079;SDS011;8655;57.106;-2.088;2023-11-18T03:47:06;4.23;;;1.50;;
17079;SDS011;8655;57.106;-2.088;2023-11-18T03:49:32;2.70;;;1.50;;
17079;SDS011;8655;57.106;-2.088;2023-11-18T03:51:58;3.17;;;1.23;;
17079;SDS011;8655;57.106;-2.088;2023-11-18T03:54:23;2.60;;;1.50;;
17079;SDS011;8655;57.106;-2.088;2023-11-18T03:56:49;3.70;;;1.40;;
17079;SDS011;8655;57.106;-2.088;2023-11-18T03:59:15;3.20;;;1.33;;
17079;SDS011;8655;57.106;-2.088;2023-11-18T04:01:40;2.87;;;1.40;;
17079;SDS011;8655;57.106;-2.088;2023-11-18T04:04:06;4.73;;;1.73;;
17079;SDS011;8655;57.106;-2.088;2023-11-18T04:06:32;3.37;;;1.60;;
17079;SDS011;8655;57.106;-2.088;2023-11-18T04:08:57;2.20;;;1.30;;
17079;SDS011;8655;57.106;-2.088;2023-11-18T04:11:24;4.23;;;1.30;;
17079;SDS011;8655;57.106;-2.088;2023-11-18T04:13:49;3.63;;;1.50;;
17079;SDS011;8655;57.106;-2.088;2023-11-18T04:16:15;3.37;;;1.83;;
17079;SDS011;8655;57.106;-2.088;2023-11-18T04:18:43;4.60;;;1.57;;
17079;SDS011;8655;57.106;-2.088;2023-11-18T04:21:10;4.90;;;2.13;;
17079;SDS011;8655;57.106;-2.088;2023-11-18T04:23:36;5.67;;;1.80;;
17079;SDS011;8655;57.106;-2.088;2023-11-18T04:26:03;4.40;;;1.50;;
17079;SDS011;8655;57.106;-2.088;2023-11-18T04:28:29;2.83;;;1.30;;
17079;SDS011;8655;57.106;-2.088;2023-11-18T04:30:55;4.23;;;1.77;;
17079;SDS011;8655;57.106;-2.088;2023-11-18T04:33:21;3.67;;;1.57;;
17079;SDS011;8655;57.106;-2.088;2023-11-18T04:35:46;5.60;;;1.80;;
17079;SDS011;8655;57.106;-2.088;2023-11-18T04:38:12;3.03;;;1.43;;
17079;SDS011;8655;57.106;-2.088;2023-11-18T04:40:38;4.20;;;1.60;;
17079;SDS011;8655;57.106;-2.088;2023-11-18T04:43:06;4.27;;;1.60;;
17079;SDS011;8655;57.106;-2.088;2023-11-18T04:45:32;5.17;;;1.80;;
17079;SDS011;8655;57.106;-2.088;2023-11-18T04:47:57;6.77;;;1.83;;
17079;SDS011;8655;57.106;-2.088;2023-11-18T04:50:24;4.90;;;2.00;;
17079;SDS011;8655;57.106;-2.088;2023-11-18T04:52:50;4.23;;;1.80;;
17079;SDS011;8655;57.106;-2.088;2023-11-18T04:55:15;5.07;;;1.60;;
17079;SDS011;8655;57.106;-2.088;2023-11-18T04:57:41;3.73;;;1.67;;
17079;SDS011;8655;57.106;-2.088;2023-11-18T05:00:08;6.77;;;1.97;;
17079;SDS011;8655;57.106;-2.088;2023-11-18T05:02:38;3.97;;;1.57;;
17079;SDS011;8655;57.106;-2.088;2023-11-18T05:05:03;6.30;;;1.90;;
17079;SDS011;8655;57.106;-2.088;2023-11-18T05:07:31;4.30;;;1.57;;
17079;SDS011;8655;57.106;-2.088;2023-11-18T05:09:57;5.43;;;2.07;;
17079;SDS011;8655;57.106;-2.088;2023-11-18T05:12:22;6.13;;;2.20;;
17079;SDS011;8655;57.106;-2.088;2023-11-18T05:14:48;5.70;;;2.13;;
17079;SDS011;8655;57.106;-2.088;2023-11-18T05:17:15;6.13;;;1.97;;
17079;SDS011;8655;57.106;-2.088;2023-11-18T05:19:41;6.97;;;2.00;;
17079;SDS011;8655;57.106;-2.088;2023-11-18T05:22:08;6.87;;;2.00;;
17079;SDS011;8655;57.106;-2.088;2023-11-18T05:24:34;4.30;;;1.50;;
17079;SDS011;8655;57.106;-2.088;2023-11-18T05:27:00;4.37;;;1.60;;
17079;SDS011;8655;57.106;-2.088;2023-11-18T05:29:29;3.30;;;1.50;;
17079;SDS011;8655;57.106;-2.088;2023-11-18T05:31:55;4.47;;;1.70;;
17079;SDS011;8655;57.106;-2.088;2023-11-18T05:34:21;4.80;;;1.70;;
17079;SDS011;8655;57.106;-2.088;2023-11-18T05:36:47;6.43;;;1.73;;
17079;SDS011;8655;57.106;-2.088;2023-11-18T05:39:13;4.43;;;1.67;;
17079;SDS011;8655;57.106;-2.088;2023-11-18T05:41:40;4.20;;;1.63;;
17079;SDS011;8655;57.106;-2.088;2023-11-18T05:44:10;5.00;;;1.93;;
17079;SDS011;8655;57.106;-2.088;2023-11-18T05:46:42;5.87;;;1.87;;
17079;SDS011;8655;57.106;-2.088;2023-11-18T05:49:11;5.13;;;1.67;;
17079;SDS011;8655;57.106;-2.088;2023-11-18T05:51:38;5.73;;;1.50;;
17079;SDS011;8655;57.106;-2.088;2023-11-18T05:54:08;4.83;;;1.80;;
17079;SDS011;8655;57.106;-2.088;2023-11-18T05:56:34;4.27;;;1.57;;
17079;SDS011;8655;57.106;-2.088;2023-11-18T05:59:00;4.90;;;2.00;;
17079;SDS011;8655;57.106;-2.088;2023-11-18T06:01:27;7.67;;;2.00;;
17079;SDS011;8655;57.106;-2.088;2023-11-18T06:03:54;6.47;;;2.13;;
17079;SDS011;8655;57.106;-2.088;2023-11-18T06:06:19;5.53;;;1.97;;
17079;SDS011;8655;57.106;-2.088;2023-11-18T06:08:46;4.60;;;1.90;;
17079;SDS011;8655;57.106;-2.088;2023-11-18T06:11:13;6.73;;;1.90;;
17079;SDS011;8655;57.106;-2.088;2023-11-18T06:13:40;5.47;;;1.97;;
17079;SDS011;8655;57.106;-2.088;2023-11-18T06:16:14;4.37;;;1.80;;
17079;SDS011;8655;57.106;-2.088;2023-11-18T06:18:46;4.30;;;1.70;;
17079;SDS011;8655;57.106;-2.088;2023-11-18T06:21:13;5.77;;;1.70;;
17079;SDS011;8655;57.106;-2.088;2023-11-18T06:23:41;6.70;;;1.80;;
17079;SDS011;8655;57.106;-2.088;2023-11-18T06:26:07;5.57;;;2.00;;
17079;SDS011;8655;57.106;-2.088;2023-11-18T06:28:43;7.13;;;1.77;;
17079;SDS011;8655;57.106;-2.088;2023-11-18T06:31:09;4.27;;;1.60;;
17079;SDS011;8655;57.106;-2.088;2023-11-18T06:33:40;5.47;;;1.80;;
17079;SDS011;8655;57.106;-2.088;2023-11-18T06:36:16;3.80;;;1.43;;
17079;SDS011;8655;57.106;-2.088;2023-11-18T06:38:46;4.60;;;1.80;;
17079;SDS011;8655;57.106;-2.088;2023-11-18T06:41:15;5.97;;;1.80;;
17079;SDS011;8655;57.106;-2.088;2023-11-18T06:43:43;4.87;;;1.80;;
17079;SDS011;8655;57.106;-2.088;2023-11-18T06:46:19;5.47;;;1.83;;
17079;SDS011;8655;57.106;-2.088;2023-11-18T06:48:49;4.93;;;1.90;;
17079;SDS011;8655;57.106;-2.088;2023-11-18T06:51:17;5.60;;;1.97;;
17079;SDS011;8655;57.106;-2.088;2023-11-18T06:53:43;7.03;;;1.87;;
17079;SDS011;8655;57.106;-2.088;2023-11-18T06:56:09;6.03;;;2.17;;
17079;SDS011;8655;57.106;-2.088;2023-11-18T06:58:38;5.10;;;1.90;;
17079;SDS011;8655;57.106;-2.088;2023-11-18T07:01:05;4.80;;;1.67;;
17079;SDS011;8655;57.106;-2.088;2023-11-18T07:03:31;5.03;;;1.87;;
17079;SDS011;8655;57.106;-2.088;2023-11-18T07:05:57;4.87;;;1.97;;
17079;SDS011;8655;57.106;-2.088;2023-11-18T07:08:23;8.07;;;2.40;;
17079;SDS011;8655;57.106;-2.088;2023-11-18T07:10:49;4.20;;;1.80;;
17079;SDS011;8655;57.106;-2.088;2023-11-18T07:13:15;5.07;;;1.80;;
17079;SDS011;8655;57.106;-2.088;2023-11-18T07:15:41;7.13;;;1.73;;
17079;SDS011;8655;57.106;-2.088;2023-11-18T07:18:08;4.30;;;1.90;;
17079;SDS011;8655;57.106;-2.088;2023-11-18T07:20:34;5.33;;;2.00;;
17079;SDS011;8655;57.106;-2.088;2023-11-18T07:23:00;5.30;;;1.97;;
17079;SDS011;8655;57.106;-2.088;2023-11-18T07:25:26;5.47;;;1.70;;
17079;SDS011;8655;57.106;-2.088;2023-11-18T07:27:52;7.15;;;1.90;;
17079;SDS011;8655;57.106;-2.088;2023-11-18T07:30:18;3.87;;;1.60;;
17079;SDS011;8655;57.106;-2.088;2023-11-18T07:32:45;3.97;;;1.73;;
17079;SDS011;8655;57.106;-2.088;2023-11-18T07:35:10;5.15;;;1.80;;
17079;SDS011;8655;57.106;-2.088;2023-11-18T07:37:36;6.87;;;1.77;;
17079;SDS011;8655;57.106;-2.088;2023-11-18T07:40:03;3.35;;;1.60;;
17079;SDS011;8655;57.106;-2.088;2023-11-18T07:42:33;4.30;;;2.20;;
17079;SDS011;8655;57.106;-2.088;2023-11-18T07:44:59;7.65;;;2.45;;
17079;SDS011;8655;57.106;-2.088;2023-11-18T07:47:29;6.40;;;1.60;;
17079;SDS011;8655;57.106;-2.088;2023-11-18T07:49:59;4.13;;;1.63;;
17079;SDS011;8655;57.106;-2.088;2023-11-18T07:52:29;4.13;;;1.80;;
17079;SDS011;8655;57.106;-2.088;2023-11-18T07:54:54;5.10;;;1.63;;
17079;SDS011;8655;57.106;-2.088;2023-11-18T07:57:20;4.82;;;1.85;;
17079;SDS011;8655;57.106;-2.088;2023-11-18T07:59:46;5.20;;;1.60;;
17079;SDS011;8655;57.106;-2.088;2023-11-18T08:02:11;5.03;;;1.70;;
17079;SDS011;8655;57.106;-2.088;2023-11-18T08:04:39;5.53;;;1.80;;
17079;SDS011;8655;57.106;-2.088;2023-11-18T08:07:06;3.30;;;1.60;;
17079;SDS011;8655;57.106;-2.088;2023-11-18T08:09:35;4.72;;;1.70;;
17079;SDS011;8655;57.106;-2.088;2023-11-18T08:12:04;4.95;;;1.60;;
17079;SDS011;8655;57.106;-2.088;2023-11-18T08:14:34;4.53;;;1.63;;
17079;SDS011;8655;57.106;-2.088;2023-11-18T08:17:00;4.28;;;1.42;;
17079;SDS011;8655;57.106;-2.088;2023-11-18T08:19:25;4.38;;;1.55;;
17079;SDS011;8655;57.106;-2.088;2023-11-18T08:21:51;4.00;;;1.50;;
17079;SDS011;8655;57.106;-2.088;2023-11-18T08:24:17;4.13;;;1.70;;
17079;SDS011;8655;57.106;-2.088;2023-11-18T08:26:43;5.63;;;1.60;;
17079;SDS011;8655;57.106;-2.088;2023-11-18T08:29:10;4.47;;;1.70;;
17079;SDS011;8655;57.106;-2.088;2023-11-18T08:31:38;4.15;;;1.70;;
17079;SDS011;8655;57.106;-2.088;2023-11-18T08:34:04;4.90;;;1.90;;
17079;SDS011;8655;57.106;-2.088;2023-11-18T08:36:30;5.07;;;1.88;;
17079;SDS011;8655;57.106;-2.088;2023-11-18T08:38:57;6.30;;;1.90;;
17079;SDS011;8655;57.106;-2.088;2023-11-18T08:41:23;3.30;;;1.70;;
17079;SDS011;8655;57.106;-2.088;2023-11-18T08:43:48;4.60;;;1.88;;
17079;SDS011;8655;57.106;-2.088;2023-11-18T08:46:14;3.28;;;1.60;;
17079;SDS011;8655;57.106;-2.088;2023-11-18T08:48:40;2.37;;;1.60;;
17079;SDS011;8655;57.106;-2.088;2023-11-18T08:51:07;6.15;;;1.60;;
17079;SDS011;8655;57.106;-2.088;2023-11-18T08:53:33;5.03;;;1.80;;
17079;SDS011;8655;57.106;-2.088;2023-11-18T08:56:07;3.57;;;1.60;;
17079;SDS011;8655;57.106;-2.088;2023-11-18T08:58:45;5.47;;;1.50;;
17079;SDS011;8655;57.106;-2.088;2023-11-18T09:01:10;2.78;;;1.60;;
17079;SDS011;8655;57.106;-2.088;2023-11-18T09:03:40;4.20;;;1.50;;
17079;SDS011;8655;57.106;-2.088;2023-11-18T09:06:13;3.92;;;1.55;;
17079;SDS011;8655;57.106;-2.088;2023-11-18T09:08:42;4.70;;;1.45;;
17079;SDS011;8655;57.106;-2.088;2023-11-18T09:11:17;3.28;;;1.67;;
17079;SDS011;8655;57.106;-2.088;2023-11-18T09:13:45;4.80;;;1.57;;
17079;SDS011;8655;57.106;-2.088;2023-11-18T09:16:18;3.80;;;1.80;;
17079;SDS011;8655;57.106;-2.088;2023-11-18T09:18:47;4.20;;;1.90;;
17079;SDS011;8655;57.106;-2.088;2023-11-18T09:21:13;4.03;;;1.55;;
17079;SDS011;8655;57.106;-2.088;2023-11-18T09:23:40;4.93;;;1.80;;
17079;SDS011;8655;57.106;-2.088;2023-11-18T09:26:09;4.97;;;1.73;;
17079;SDS011;8655;57.106;-2.088;2023-11-18T09:28:36;5.87;;;1.70;;
17079;SDS011;8655;57.106;-2.088;2023-11-18T09:31:02;3.90;;;1.60;;
17079;SDS011;8655;57.106;-2.088;2023-11-18T09:33:36;4.00;;;1.63;;
17079;SDS011;8655;57.106;-2.088;2023-11-18T09:36:03;3.23;;;1.40;;
17079;SDS011;8655;57.106;-2.088;2023-11-18T09:38:33;4.07;;;1.77;;
17079;SDS011;8655;57.106;-2.088;2023-11-18T09:41:01;5.65;;;1.70;;
17079;SDS011;8655;57.106;-2.088;2023-11-18T09:43:32;4.32;;;1.70;;
17079;SDS011;8655;57.106;-2.088;2023-11-18T09:46:07;3.77;;;1.67;;
17079;SDS011;8655;57.106;-2.088;2023-11-18T09:51:15;4.43;;;1.67;;
17079;SDS011;8655;57.106;-2.088;2023-11-18T09:53:46;3.47;;;1.48;;
17079;SDS011;8655;57.106;-2.088;2023-11-18T09:59:52;3.90;;;1.63;;
17079;SDS011;8655;57.106;-2.088;2023-11-18T10:02:24;4.28;;;1.67;;
17079;SDS011;8655;57.106;-2.088;2023-11-18T10:04:50;4.83;;;1.60;;
17079;SDS011;8655;57.106;-2.088;2023-11-18T10:07:23;4.72;;;1.55;;
17079;SDS011;8655;57.106;-2.088;2023-11-18T10:09:57;4.80;;;1.70;;
17079;SDS011;8655;57.106;-2.088;2023-11-18T10:12:23;4.22;;;1.95;;
17079;SDS011;8655;57.106;-2.088;2023-11-18T10:14:51;4.93;;;1.63;;
17079;SDS011;8655;57.106;-2.088;2023-11-18T10:17:17;4.40;;;1.60;;
17079;SDS011;8655;57.106;-2.088;2023-11-18T10:19:53;4.07;;;1.60;;
17079;SDS011;8655;57.106;-2.088;2023-11-18T10:22:25;5.67;;;1.80;;
17079;SDS011;8655;57.106;-2.088;2023-11-18T10:24:53;5.57;;;1.83;;
17079;SDS011;8655;57.106;-2.088;2023-11-18T10:27:28;4.25;;;1.42;;
17079;SDS011;8655;57.106;-2.088;2023-11-18T10:29:55;6.05;;;1.92;;
17079;SDS011;8655;57.106;-2.088;2023-11-18T10:32:31;4.00;;;1.47;;
17079;SDS011;8655;57.106;-2.088;2023-11-18T10:35:00;4.93;;;1.90;;
17079;SDS011;8655;57.106;-2.088;2023-11-18T10:37:30;5.00;;;1.80;;
17079;SDS011;8655;57.106;-2.088;2023-11-18T10:39:56;3.80;;;1.60;;
17079;SDS011;8655;57.106;-2.088;2023-11-18T10:42:25;5.00;;;1.77;;
17079;SDS011;8655;57.106;-2.088;2023-11-18T10:44:58;6.30;;;1.87;;
17079;SDS011;8655;57.106;-2.088;2023-11-18T10:47:28;3.57;;;1.50;;
17079;SDS011;8655;57.106;-2.088;2023-11-18T10:49:57;3.77;;;1.57;;
17079;SDS011;8655;57.106;-2.088;2023-11-18T10:52:24;2.83;;;1.23;;
17079;SDS011;8655;57.106;-2.088;2023-11-18T10:55:01;5.20;;;1.77;;
17079;SDS011;8655;57.106;-2.088;2023-11-18T10:57:36;4.10;;;1.80;;
17079;SDS011;8655;57.106;-2.088;2023-11-18T11:00:05;3.97;;;1.63;;
17079;SDS011;8655;57.106;-2.088;2023-11-18T11:02:43;5.60;;;1.60;;
17079;SDS011;8655;57.106;-2.088;2023-11-18T11:05:09;4.83;;;1.60;;
17079;SDS011;8655;57.106;-2.088;2023-11-18T11:07:42;5.13;;;1.50;;
17079;SDS011;8655;57.106;-2.088;2023-11-18T11:10:08;4.40;;;1.67;;
17079;SDS011;8655;57.106;-2.088;2023-11-18T11:12:43;3.57;;;1.40;;
17079;SDS011;8655;57.106;-2.088;2023-11-18T11:15:22;2.63;;;1.43;;
17079;SDS011;8655;57.106;-2.088;2023-11-18T11:17:54;4.20;;;1.60;;
17079;SDS011;8655;57.106;-2.088;2023-11-18T11:20:34;2.97;;;1.40;;
17079;SDS011;8655;57.106;-2.088;2023-11-18T11:28:36;4.70;;;1.83;;
17079;SDS011;8655;57.106;-2.088;2023-11-18T11:31:20;4.20;;;1.77;;
17079;SDS011;8655;57.106;-2.088;2023-11-18T11:36:27;4.93;;;1.73;;
17079;SDS011;8655;57.106;-2.088;2023-11-18T11:39:07;3.07;;;1.40;;
17079;SDS011;8655;57.106;-2.088;2023-11-18T11:41:42;4.03;;;1.90;;
17079;SDS011;8655;57.106;-2.088;2023-11-18T11:44:11;4.47;;;1.70;;
17079;SDS011;8655;57.106;-2.088;2023-11-18T11:46:38;4.13;;;1.70;;
17079;SDS011;8655;57.106;-2.088;2023-11-18T11:49:07;3.37;;;1.40;;
17079;SDS011;8655;57.106;-2.088;2023-11-18T11:52:30;5.50;;;1.73;;
17079;SDS011;8655;57.106;-2.088;2023-11-18T11:55:00;4.60;;;1.53;;
17079;SDS011;8655;57.106;-2.088;2023-11-18T11:57:37;5.60;;;1.87;;
17079;SDS011;8655;57.106;-2.088;2023-11-18T12:00:04;4.17;;;1.67;;
17079;SDS011;8655;57.106;-2.088;2023-11-18T12:02:40;4.77;;;1.80;;
17079;SDS011;8655;57.106;-2.088;2023-11-18T12:05:20;4.38;;;1.77;;
17079;SDS011;8655;57.106;-2.088;2023-11-18T12:07:51;3.93;;;2.00;;
17079;SDS011;8655;57.106;-2.088;2023-11-18T12:10:21;4.13;;;1.60;;
17079;SDS011;8655;57.106;-2.088;2023-11-18T12:12:51;4.53;;;1.73;;
17079;SDS011;8655;57.106;-2.088;2023-11-18T12:15:55;5.50;;;1.90;;
17079;SDS011;8655;57.106;-2.088;2023-11-18T12:18:24;3.42;;;1.40;;
17079;SDS011;8655;57.106;-2.088;2023-11-18T12:20:50;3.03;;;1.30;;
17079;SDS011;8655;57.106;-2.088;2023-11-18T12:23:27;4.17;;;1.60;;
17079;SDS011;8655;57.106;-2.088;2023-11-18T12:25:54;3.73;;;1.80;;
17079;SDS011;8655;57.106;-2.088;2023-11-18T12:30:52;4.97;;;1.70;;
17079;SDS011;8655;57.106;-2.088;2023-11-18T12:33:25;4.80;;;1.93;;
17079;SDS011;8655;57.106;-2.088;2023-11-18T12:42:08;3.77;;;1.50;;
17079;SDS011;8655;57.106;-2.088;2023-11-18T12:47:27;4.17;;;1.33;;
17079;SDS011;8655;57.106;-2.088;2023-11-18T12:49:57;4.80;;;1.63;;
17079;SDS011;8655;57.106;-2.088;2023-11-18T12:52:25;4.67;;;1.63;;
17079;SDS011;8655;57.106;-2.088;2023-11-18T12:54:53;4.47;;;1.60;;
17079;SDS011;8655;57.106;-2.088;2023-11-18T12:57:26;2.93;;;1.50;;
17079;SDS011;8655;57.106;-2.088;2023-11-18T12:59:56;3.50;;;1.60;;
17079;SDS011;8655;57.106;-2.088;2023-11-18T13:02:22;4.60;;;1.63;;
17079;SDS011;8655;57.106;-2.088;2023-11-18T13:04:48;4.53;;;1.60;;
17079;SDS011;8655;57.106;-2.088;2023-11-18T13:07:17;2.83;;;1.48;;
17079;SDS011;8655;57.106;-2.088;2023-11-18T13:09:44;4.13;;;1.70;;
17079;SDS011;8655;57.106;-2.088;2023-11-18T13:12:11;3.97;;;1.50;;
17079;SDS011;8655;57.106;-2.088;2023-11-18T13:14:40;4.07;;;1.57;;
17079;SDS011;8655;57.106;-2.088;2023-11-18T13:17:14;2.93;;;1.50;;
17079;SDS011;8655;57.106;-2.088;2023-11-18T13:19:41;6.17;;;1.57;;
17079;SDS011;8655;57.106;-2.088;2023-11-18T13:22:09;3.97;;;1.67;;
17079;SDS011;8655;57.106;-2.088;2023-11-18T13:24:37;4.10;;;1.80;;
17079;SDS011;8655;57.106;-2.088;2023-11-18T13:27:10;3.37;;;1.30;;
17079;SDS011;8655;57.106;-2.088;2023-11-18T13:29:43;4.73;;;1.40;;
17079;SDS011;8655;57.106;-2.088;2023-11-18T13:32:20;4.27;;;1.53;;
17079;SDS011;8655;57.106;-2.088;2023-11-18T13:34:48;3.27;;;1.33;;
17079;SDS011;8655;57.106;-2.088;2023-11-18T13:37:14;3.63;;;1.40;;
17079;SDS011;8655;57.106;-2.088;2023-11-18T13:39:42;3.20;;;1.38;;
17079;SDS011;8655;57.106;-2.088;2023-11-18T13:42:22;5.60;;;1.50;;
17079;SDS011;8655;57.106;-2.088;2023-11-18T13:44:51;3.80;;;1.60;;
17079;SDS011;8655;57.106;-2.088;2023-11-18T13:47:17;2.40;;;1.42;;
17079;SDS011;8655;57.106;-2.088;2023-11-18T13:49:44;2.67;;;1.30;;
17079;SDS011;8655;57.106;-2.088;2023-11-18T13:52:12;4.10;;;1.87;;
17079;SDS011;8655;57.106;-2.088;2023-11-18T13:54:41;2.53;;;1.33;;
17079;SDS011;8655;57.106;-2.088;2023-11-18T13:57:11;2.23;;;1.30;;
17079;SDS011;8655;57.106;-2.088;2023-11-18T13:59:37;2.80;;;1.40;;
17079;SDS011;8655;57.106;-2.088;2023-11-18T14:02:08;3.40;;;1.53;;
17079;SDS011;8655;57.106;-2.088;2023-11-18T14:04:34;2.73;;;1.60;;
17079;SDS011;8655;57.106;-2.088;2023-11-18T14:07:00;4.87;;;1.73;;
17079;SDS011;8655;57.106;-2.088;2023-11-18T14:09:30;3.80;;;1.57;;
17079;SDS011;8655;57.106;-2.088;2023-11-18T14:12:05;2.43;;;1.23;;
17079;SDS011;8655;57.106;-2.088;2023-11-18T14:14:32;2.87;;;1.47;;
17079;SDS011;8655;57.106;-2.088;2023-11-18T14:16:57;2.80;;;1.43;;
17079;SDS011;8655;57.106;-2.088;2023-11-18T14:19:27;3.00;;;1.40;;
17079;SDS011;8655;57.106;-2.088;2023-11-18T14:21:54;3.40;;;1.30;;
17079;SDS011;8655;57.106;-2.088;2023-11-18T14:24:21;3.77;;;1.20;;
17079;SDS011;8655;57.106;-2.088;2023-11-18T14:26:57;2.93;;;1.43;;
17079;SDS011;8655;57.106;-2.088;2023-11-18T14:29:22;3.77;;;1.50;;
17079;SDS011;8655;57.106;-2.088;2023-11-18T14:31:48;2.50;;;1.20;;
17079;SDS011;8655;57.106;-2.088;2023-11-18T14:34:14;3.80;;;1.58;;
17079;SDS011;8655;57.106;-2.088;2023-11-18T14:36:40;4.03;;;1.67;;
17079;SDS011;8655;57.106;-2.088;2023-11-18T14:39:06;3.17;;;1.63;;
17079;SDS011;8655;57.106;-2.088;2023-11-18T14:41:40;4.17;;;1.40;;
17079;SDS011;8655;57.106;-2.088;2023-11-18T14:44:06;2.30;;;1.10;;
17079;SDS011;8655;57.106;-2.088;2023-11-18T14:46:34;3.10;;;1.43;;
17079;SDS011;8655;57.106;-2.088;2023-11-18T14:49:00;3.80;;;1.50;;
17079;SDS011;8655;57.106;-2.088;2023-11-18T14:51:26;3.20;;;1.40;;
17079;SDS011;8655;57.106;-2.088;2023-11-18T14:53:51;4.10;;;1.50;;
17079;SDS011;8655;57.106;-2.088;2023-11-18T14:56:18;4.37;;;1.50;;
17079;SDS011;8655;57.106;-2.088;2023-11-18T14:58:44;3.40;;;1.30;;
17079;SDS011;8655;57.106;-2.088;2023-11-18T15:01:14;3.57;;;1.37;;
17079;SDS011;8655;57.106;-2.088;2023-11-18T15:03:40;3.83;;;1.33;;
17079;SDS011;8655;57.106;-2.088;2023-11-18T15:06:06;3.33;;;1.13;;
17079;SDS011;8655;57.106;-2.088;2023-11-18T15:08:32;2.70;;;1.30;;
17079;SDS011;8655;57.106;-2.088;2023-11-18T15:10:58;3.23;;;1.30;;
17079;SDS011;8655;57.106;-2.088;2023-11-18T15:13:24;3.73;;;1.60;;
17079;SDS011;8655;57.106;-2.088;2023-11-18T15:15:50;2.10;;;1.20;;
17079;SDS011;8655;57.106;-2.088;2023-11-18T15:18:15;2.63;;;1.30;;
17079;SDS011;8655;57.106;-2.088;2023-11-18T15:20:43;5.07;;;1.33;;